createdAt,value
2023-05-10T00:04:59.696Z,100311.38
2023-05-10T00:10:02.232Z,100273.41
2023-05-10T00:15:06.631Z,100356.25
2023-05-10T00:20:10.522Z,100289.38
2023-05-10T00:25:12.895Z,100352.72
2023-05-10T00:30:15.578Z,100380.88
2023-05-10T00:35:18.370Z,100391.28
2023-05-10T00:40:20.816Z,100387.75
2023-05-10T00:45:28.562Z,100332.91
2023-05-10T00:50:32.359Z,100336.66
2023-05-10T00:55:34.819Z,100389.41
2023-05-10T01:00:38.768Z,100381.53
2023-05-10T01:05:41.213Z,100273.19
2023-05-10T01:10:44.533Z,100258.16
2023-05-10T01:15:48.416Z,100375.34
2023-05-10T01:21:10.352Z,100362.94
2023-05-10T01:26:26.447Z,100386.56
2023-05-10T01:31:31.857Z,100379.47
2023-05-10T01:36:54.572Z,100389.16
2023-05-10T01:42:12.769Z,100371.44
2023-05-10T01:48:00.659Z,100383.97
2023-05-10T01:53:04.199Z,100368.47
2023-05-10T01:58:11.832Z,100247.94
2023-05-10T02:03:15.279Z,100336.63
2023-05-10T02:08:19.188Z,100345.66
2023-05-10T02:13:23.133Z,100354.56
2023-05-10T02:18:27.376Z,100337.97
2023-05-10T02:23:31.213Z,100314.06
2023-05-10T02:28:33.974Z,100369.63
2023-05-10T02:33:40.874Z,100331.88
2023-05-10T02:38:43.529Z,100310.72
2023-05-10T02:43:46.870Z,100363.56
2023-05-10T02:48:49.329Z,100359.28
2023-05-10T02:53:52.424Z,100325.75
2023-05-10T02:58:54.913Z,100314.19
2023-05-10T03:03:57.502Z,100339.13
2023-05-10T03:09:00.357Z,100238.59
2023-05-10T03:14:23.805Z,100359.56
2023-05-10T03:19:32.258Z,100179.88
2023-05-10T03:24:36.006Z,100238.00
2023-05-10T03:29:39.402Z,100354.50
2023-05-10T03:34:46.180Z,100365.91
2023-05-10T03:39:48.485Z,100160.06
2023-05-10T03:44:51.363Z,100321.47
2023-05-10T03:49:55.432Z,100318.13
2023-05-10T03:54:58.506Z,100338.59
2023-05-10T04:00:01.188Z,100254.88
2023-05-10T04:05:09.090Z,100348.41
2023-05-10T04:10:12.728Z,100269.31
2023-05-10T04:15:15.208Z,100305.81
2023-05-10T04:20:18.325Z,100278.69
2023-05-10T04:25:20.888Z,100301.69
2023-05-10T04:30:24.235Z,100305.56
2023-05-10T04:35:27.796Z,100297.13
2023-05-10T04:40:30.417Z,100247.91
2023-05-10T04:45:32.888Z,100286.28
2023-05-10T04:50:35.529Z,100203.75
2023-05-10T04:55:39.650Z,100229.69
2023-05-10T05:00:42.153Z,100274.03
2023-05-10T05:05:45.908Z,100303.44
2023-05-10T05:10:51.665Z,100286.19
2023-05-10T05:15:54.848Z,100196.94
2023-05-10T05:20:57.437Z,100266.81
2023-05-10T05:26:00.599Z,100274.31
2023-05-10T05:31:03.091Z,100238.72
2023-05-10T05:36:06.744Z,100280.53
2023-05-10T05:41:09.351Z,100273.00
2023-05-10T05:46:12.192Z,100214.47
2023-05-10T05:51:14.620Z,100182.16
2023-05-10T05:56:17.026Z,100205.25
2023-05-10T06:01:19.537Z,100271.41
2023-05-10T06:06:22.124Z,100219.00
2023-05-10T06:11:25.270Z,100204.28
2023-05-10T06:16:28.050Z,100242.25
2023-05-10T06:21:33.009Z,100238.03
2023-05-10T06:26:35.433Z,100230.31
2023-05-10T06:31:38.141Z,100161.16
2023-05-10T06:36:40.748Z,100204.28
2023-05-10T06:41:43.587Z,100136.84
2023-05-10T06:46:46.452Z,100242.22
2023-05-10T06:51:49.670Z,100187.97
2023-05-10T06:56:52.162Z,100220.50
2023-05-10T07:01:55.190Z,100240.72
2023-05-10T07:06:59.047Z,100241.63
2023-05-10T07:12:03.144Z,100220.63
2023-05-10T07:17:07.372Z,99903.66
2023-05-10T07:22:09.969Z,100202.41
2023-05-10T07:27:13.009Z,100176.19
2023-05-10T07:32:15.701Z,100097.34
2023-05-10T07:37:21.430Z,99819.00
2023-05-10T07:42:24.293Z,100164.84
2023-05-10T07:47:27.402Z,100040.59
2023-05-10T07:52:29.937Z,100094.91
2023-05-10T07:57:32.476Z,100200.78
2023-05-10T08:02:36.888Z,100187.59
2023-05-10T08:07:39.617Z,100197.97
2023-05-10T08:12:42.221Z,100158.41
2023-05-10T08:17:44.709Z,100096.03
2023-05-10T08:22:48.570Z,100151.69
2023-05-10T08:27:52.274Z,100162.56
2023-05-10T08:32:54.712Z,100080.06
2023-05-10T08:37:57.118Z,100144.38
2023-05-10T08:43:13.893Z,100118.19
2023-05-10T08:48:16.908Z,100134.94
2023-05-10T08:53:20.661Z,100098.22
2023-05-10T08:58:23.805Z,100100.94
2023-05-10T09:03:26.428Z,100116.75
2023-05-10T09:08:29.248Z,100072.38
2023-05-10T09:13:32.085Z,100121.31
2023-05-10T09:18:34.831Z,100055.00
2023-05-10T09:23:38.711Z,100089.03
2023-05-10T09:28:54.381Z,100122.03
2023-05-10T09:33:56.725Z,100083.72
2023-05-10T09:38:59.195Z,100122.97
2023-05-10T09:44:01.716Z,100085.25
2023-05-10T09:49:04.296Z,100080.75
2023-05-10T09:54:17.372Z,100093.72
2023-05-10T09:59:20.128Z,100101.59
2023-05-10T10:04:22.762Z,100078.81
2023-05-10T10:09:25.973Z,100023.03
2023-05-10T10:14:28.914Z,100027.25
2023-05-10T10:19:32.086Z,100024.25
2023-05-10T10:24:35.136Z,100080.84
2023-05-10T10:30:27.540Z,100078.88
2023-05-10T10:35:31.021Z,100067.56
2023-05-10T10:40:35.286Z,100076.16
2023-05-10T10:45:42.109Z,100054.22
2023-05-10T10:50:47.076Z,100043.69
2023-05-10T10:55:49.855Z,100071.72
2023-05-10T11:01:13.177Z,100066.38
2023-05-10T11:06:33.743Z,99946.91
2023-05-10T11:11:37.485Z,100028.97
2023-05-10T11:16:44.398Z,99987.94
2023-05-10T11:22:15.057Z,100053.22
2023-05-10T11:27:17.547Z,100039.34
2023-05-10T11:32:22.589Z,100001.88
2023-05-10T11:37:25.179Z,100017.44
2023-05-10T11:42:29.469Z,100011.22
2023-05-10T11:47:31.933Z,100009.34
2023-05-10T11:52:40.716Z,100009.28
2023-05-10T11:57:45.458Z,100023.03
2023-05-10T12:02:48.630Z,100013.41
2023-05-10T12:07:51.225Z,100013.41
2023-05-10T12:12:54.277Z,100005.53
2023-05-10T12:17:58.515Z,99864.75
2023-05-10T12:23:04.490Z,99959.53
2023-05-10T12:28:08.895Z,99936.00
2023-05-10T12:33:13.597Z,99967.41
2023-05-10T12:38:33.890Z,99990.53
2023-05-10T12:43:37.489Z,99957.53
2023-05-10T12:48:40.719Z,99993.25
2023-05-10T12:53:45.681Z,99989.72
2023-05-10T12:58:49.431Z,99955.81
2023-05-10T13:03:52.285Z,99935.69
2023-05-10T13:08:54.772Z,99982.78
2023-05-10T13:13:57.265Z,99973.16
2023-05-10T13:19:00.004Z,99960.97
2023-05-10T13:24:02.915Z,99956.66
2023-05-10T13:29:05.395Z,99911.31
2023-05-10T13:34:07.797Z,99880.88
2023-05-10T13:39:10.386Z,99961.69
2023-05-10T13:44:14.605Z,99969.72
2023-05-10T13:49:17.082Z,99935.69
2023-05-10T13:54:21.298Z,99884.31
2023-05-10T13:59:23.850Z,99936.53
2023-05-10T14:04:26.714Z,99954.94
2023-05-10T14:09:29.261Z,99913.16
2023-05-10T14:14:31.891Z,99940.06
2023-05-10T14:19:35.385Z,99908.84
2023-05-10T14:24:37.830Z,99840.81
2023-05-10T14:29:40.286Z,99924.47
2023-05-10T14:34:42.653Z,99936.66
2023-05-10T14:39:45.183Z,99938.44
2023-05-10T14:44:47.715Z,99920.16
2023-05-10T14:49:50.194Z,99913.19
2023-05-10T14:54:52.750Z,99903.69
2023-05-10T14:59:55.289Z,99866.19
2023-05-10T15:04:59.628Z,99917.72
2023-05-10T15:10:02.851Z,99923.03
2023-05-10T15:15:08.127Z,99900.38
2023-05-10T15:20:11.173Z,99937.91
2023-05-10T15:25:15.788Z,99923.22
2023-05-10T15:30:18.544Z,99928.41
2023-05-10T15:35:21.018Z,99911.91
2023-05-10T15:40:24.304Z,99905.81
2023-05-10T15:45:27.883Z,99896.28
2023-05-10T15:50:30.400Z,99892.84
2023-05-10T15:55:35.445Z,99858.94
2023-05-10T16:00:38.249Z,99918.22
2023-05-10T16:05:40.755Z,99920.06
2023-05-10T16:10:43.223Z,99898.38
2023-05-10T16:15:45.815Z,99922.00
2023-05-10T16:20:48.909Z,99905.53
2023-05-10T16:25:52.382Z,99860.31
2023-05-10T16:30:55.026Z,99857.81
2023-05-10T16:35:57.614Z,99921.50
2023-05-10T16:41:02.758Z,99855.31
2023-05-10T16:46:10.977Z,99893.81
2023-05-10T16:51:13.583Z,99900.88
2023-05-10T16:56:18.134Z,99898.34
2023-05-10T17:01:20.861Z,99911.53
2023-05-10T17:06:23.383Z,99940.47
2023-05-10T17:11:25.913Z,99896.94
2023-05-10T17:16:29.505Z,99942.41
2023-05-10T17:21:32.471Z,99865.72
2023-05-10T17:26:35.235Z,99926.00
2023-05-10T17:31:38.030Z,99874.59
2023-05-10T17:36:40.946Z,99901.72
2023-05-10T17:41:43.482Z,99955.91
2023-05-10T17:46:46.045Z,99942.94
2023-05-10T17:51:48.602Z,99881.00
2023-05-10T17:56:53.926Z,99963.13
2023-05-10T18:01:56.495Z,99918.69
2023-05-10T18:07:01.933Z,99921.31
2023-05-10T18:12:05.076Z,99958.03
2023-05-10T18:17:07.829Z,99873.34
2023-05-10T18:22:11.026Z,99942.38
2023-05-10T18:27:14.026Z,99897.91
2023-05-10T18:32:16.833Z,99967.75
2023-05-10T18:37:19.904Z,99948.63
2023-05-10T18:42:24.039Z,99925.03
2023-05-10T18:47:27.727Z,99973.13
2023-05-10T18:52:30.509Z,99979.34
2023-05-10T18:57:33.114Z,99866.63
2023-05-10T19:02:39.543Z,99912.03
2023-05-10T19:07:44.149Z,99927.72
2023-05-10T19:12:46.715Z,99893.66
2023-05-10T19:17:50.680Z,99970.50
2023-05-10T19:23:09.269Z,99925.97
2023-05-10T19:28:14.449Z,99932.94
2023-05-10T19:33:20.447Z,99922.47
2023-05-10T19:38:23.994Z,99935.59
2023-05-10T19:43:27.711Z,99943.50
2023-05-10T19:48:30.846Z,99974.94
2023-05-10T19:53:33.535Z,99949.63
2023-05-10T19:58:39.164Z,99922.56
2023-05-10T20:03:41.928Z,99940.00
2023-05-10T20:08:44.561Z,99965.41
2023-05-10T20:13:47.003Z,99972.41
2023-05-10T20:18:49.659Z,99920.84
2023-05-10T20:23:55.735Z,99952.31
2023-05-10T20:28:58.463Z,99941.84
2023-05-10T20:34:00.996Z,99950.59
2023-05-10T20:39:03.634Z,99974.19
2023-05-10T20:44:06.453Z,99973.31
2023-05-10T20:49:09.533Z,99909.47
2023-05-10T20:54:12.145Z,99967.19
2023-05-10T20:59:14.533Z,99905.06
2023-05-10T21:04:17.063Z,99951.41
2023-05-10T21:09:19.565Z,99966.28
2023-05-10T21:14:22.239Z,99972.38
2023-05-10T21:19:24.856Z,99942.63
2023-05-10T21:24:27.429Z,99933.00
2023-05-10T21:29:29.823Z,99901.56
2023-05-10T21:34:32.435Z,99972.38
2023-05-10T21:39:34.902Z,99794.81
2023-05-10T21:44:38.992Z,99910.19
2023-05-10T21:49:41.586Z,99971.41
2023-05-10T21:54:44.130Z,99876.94
2023-05-10T21:59:46.722Z,99957.38
2023-05-10T22:04:49.442Z,99975.75
2023-05-10T22:09:52.015Z,99926.72
2023-05-10T22:15:09.174Z,99874.19
2023-05-10T22:20:12.896Z,99956.41
2023-05-10T22:25:15.495Z,99936.28
2023-05-10T22:30:18.443Z,99923.97
2023-05-10T22:35:21.390Z,99894.22
2023-05-10T22:40:23.898Z,99977.34
2023-05-10T22:45:26.347Z,99911.69
2023-05-10T22:50:30.604Z,99962.41
2023-05-10T22:55:33.066Z,99977.25
2023-05-10T23:00:35.659Z,99909.75
2023-05-10T23:05:38.426Z,99913.25
2023-05-10T23:10:41.524Z,99876.47
2023-05-10T23:15:44.177Z,99907.91
2023-05-10T23:20:46.608Z,99977.97
2023-05-10T23:25:49.104Z,99896.44
2023-05-10T23:30:57.937Z,99936.69
2023-05-10T23:36:00.412Z,99956.75
2023-05-10T23:41:02.909Z,99962.88
2023-05-10T23:46:06.860Z,99987.34
2023-05-10T23:51:09.415Z,99944.38
2023-05-10T23:56:12.175Z,99995.13
